createdAt,value
2022-11-30T00:01:23.245Z,98297.25
2022-11-30T00:03:55.376Z,98301.19
2022-11-30T00:06:24.227Z,98294.44
2022-11-30T00:08:56.033Z,98294.94
2022-11-30T00:11:25.888Z,98301.34
2022-11-30T00:13:53.631Z,98295.91
2022-11-30T00:16:21.924Z,98308.09
2022-11-30T00:18:49.933Z,98304.81
2022-11-30T00:21:17.568Z,98305.94
2022-11-30T00:23:46.829Z,98299.69
2022-11-30T00:26:16.469Z,98302.34
2022-11-30T00:28:45.885Z,98310.06
2022-11-30T00:31:15.770Z,98310.72
2022-11-30T00:33:44.385Z,98306.28
2022-11-30T00:36:17.487Z,98312.38
2022-11-30T00:38:45.899Z,98306.28
2022-11-30T00:41:14.426Z,98300.53
2022-11-30T00:43:42.381Z,98309.75
2022-11-30T00:46:10.698Z,98302.81
2022-11-30T00:48:39.548Z,98297.75
2022-11-30T00:51:09.608Z,98303.16
2022-11-30T00:53:37.783Z,98299.53
2022-11-30T00:56:06.279Z,98299.38
2022-11-30T00:58:33.889Z,98304.78
2022-11-30T01:01:01.585Z,98297.88
2022-11-30T01:03:29.067Z,98301.00
2022-11-30T01:06:02.124Z,98305.97
2022-11-30T01:08:29.618Z,98306.09
2022-11-30T01:10:57.967Z,98306.09
2022-11-30T01:13:25.500Z,98305.94
2022-11-30T01:15:53.028Z,98307.91
2022-11-30T01:18:20.596Z,98296.41
2022-11-30T01:20:48.200Z,98293.44
2022-11-30T01:23:15.675Z,98295.91
2022-11-30T01:25:43.287Z,98300.16
2022-11-30T01:28:11.086Z,98298.22
2022-11-30T01:30:38.504Z,98301.50
2022-11-30T01:33:06.237Z,98305.75
2022-11-30T01:35:33.713Z,98298.84
2022-11-30T01:38:01.238Z,98300.50
2022-11-30T01:40:28.767Z,98309.03
2022-11-30T01:42:56.267Z,98298.84
2022-11-30T01:45:23.763Z,98301.78
2022-11-30T01:47:55.698Z,98309.38
2022-11-30T01:50:32.368Z,98297.19
2022-11-30T01:53:00.044Z,98306.72
2022-11-30T01:55:36.336Z,98300.28
2022-11-30T01:58:06.766Z,98311.94
2022-11-30T02:00:34.297Z,98312.44
2022-11-30T02:03:17.757Z,98314.22
2022-11-30T02:05:46.206Z,98313.03
2022-11-30T02:08:14.223Z,98316.81
2022-11-30T02:10:45.617Z,98317.78
2022-11-30T02:13:22.287Z,98317.28
2022-11-30T02:16:08.589Z,98316.44
2022-11-30T02:18:54.098Z,98323.63
2022-11-30T02:22:00.165Z,98321.84
2022-11-30T02:24:41.971Z,98318.88
2022-11-30T02:27:41.640Z,98324.47
2022-11-30T02:30:14.431Z,98318.06
2022-11-30T02:32:54.918Z,98316.56
2022-11-30T02:35:27.286Z,98312.00
2022-11-30T02:37:56.515Z,98317.75
2022-11-30T02:40:24.626Z,98322.50
2022-11-30T02:42:54.420Z,98323.13
2022-11-30T02:45:31.636Z,98323.44
2022-11-30T02:48:04.848Z,98326.75
2022-11-30T02:50:39.996Z,98327.22
2022-11-30T02:53:09.763Z,98324.75
2022-11-30T02:55:37.510Z,98326.53
2022-11-30T02:58:05.648Z,98326.53
2022-11-30T03:00:33.134Z,98329.03
2022-11-30T03:03:00.798Z,98332.00
2022-11-30T03:05:28.370Z,98332.16
2022-11-30T03:07:55.867Z,98336.09
2022-11-30T03:10:23.603Z,98338.91
2022-11-30T03:12:51.521Z,98339.41
2022-11-30T03:15:19.071Z,98345.84
2022-11-30T03:17:46.536Z,98339.25
2022-11-30T03:20:14.073Z,98346.50
2022-11-30T03:22:41.631Z,98342.84
2022-11-30T03:25:09.479Z,98336.00
2022-11-30T03:27:37.048Z,98340.94
2022-11-30T03:30:05.895Z,98339.94
2022-11-30T03:32:33.445Z,98337.16
2022-11-30T03:35:00.927Z,98339.94
2022-11-30T03:37:28.458Z,98339.44
2022-11-30T03:39:58.332Z,98334.84
2022-11-30T03:42:26.097Z,98336.13
2022-11-30T03:44:53.746Z,98335.31
2022-11-30T03:47:21.282Z,98332.53
2022-11-30T03:49:48.797Z,98335.31
2022-11-30T03:52:16.339Z,98344.69
2022-11-30T03:54:44.007Z,98338.09
2022-11-30T03:57:11.659Z,98342.72
2022-11-30T03:59:39.239Z,98346.81
2022-11-30T04:02:06.683Z,98346.81
2022-11-30T04:04:34.264Z,98349.59
2022-11-30T04:07:01.807Z,98352.28
2022-11-30T04:09:29.287Z,98341.91
2022-11-30T04:11:56.769Z,98342.22
2022-11-30T04:14:24.227Z,98350.28
2022-11-30T04:16:51.700Z,98345.34
2022-11-30T04:19:19.154Z,98341.25
2022-11-30T04:21:46.827Z,98354.53
2022-11-30T04:24:14.248Z,98347.97
2022-11-30T04:26:41.744Z,98352.59
2022-11-30T04:29:09.217Z,98350.09
2022-11-30T04:31:36.745Z,98342.03
2022-11-30T04:34:04.262Z,98345.66
2022-11-30T04:36:31.756Z,98347.28
2022-11-30T04:38:59.264Z,98339.03
2022-11-30T04:41:26.835Z,98345.97
2022-11-30T04:43:55.011Z,98354.81
2022-11-30T04:46:22.540Z,98352.81
2022-11-30T04:48:50.069Z,98347.91
2022-11-30T04:51:17.547Z,98347.91
2022-11-30T04:53:45.038Z,98353.47
2022-11-30T04:56:12.676Z,98354.78
2022-11-30T04:58:40.243Z,98358.06
2022-11-30T05:01:08.107Z,98359.00
2022-11-30T05:03:35.669Z,98361.53
2022-11-30T05:06:03.668Z,98356.06
2022-11-30T05:12:37.621Z,98367.84
2022-11-30T05:15:05.732Z,98366.34
2022-11-30T05:17:33.372Z,98373.41
2022-11-30T05:20:00.890Z,98378.97
2022-11-30T05:22:28.442Z,98376.53
2022-11-30T05:24:56.011Z,98386.50
2022-11-30T05:27:23.651Z,98383.22
2022-11-30T05:29:51.205Z,98383.00
2022-11-30T05:32:19.152Z,98385.78
2022-11-30T05:34:51.129Z,98387.72
2022-11-30T05:37:19.997Z,98392.00
2022-11-30T05:39:47.537Z,98399.59
2022-11-30T05:42:15.142Z,98394.09
2022-11-30T05:44:43.250Z,98408.38
2022-11-30T05:47:10.989Z,98401.63
2022-11-30T05:49:38.665Z,98406.06
2022-11-30T05:52:06.387Z,98399.13
2022-11-30T05:54:34.959Z,98399.13
2022-11-30T05:57:02.664Z,98405.97
2022-11-30T05:59:30.302Z,98397.59
2022-11-30T06:01:57.909Z,98405.16
2022-11-30T06:04:25.681Z,98412.81
2022-11-30T06:06:55.923Z,98407.50
2022-11-30T06:09:23.872Z,98407.72
2022-11-30T06:11:51.511Z,98409.69
2022-11-30T06:14:19.111Z,98419.78
2022-11-30T06:16:46.678Z,98421.91
2022-11-30T06:19:14.251Z,98421.38
2022-11-30T06:21:41.951Z,98427.06
2022-11-30T06:24:10.333Z,98422.03
2022-11-30T06:26:37.960Z,98423.84
2022-11-30T06:29:05.697Z,98420.28
2022-11-30T06:31:33.452Z,98420.69
2022-11-30T06:34:01.080Z,98407.34
2022-11-30T06:36:34.169Z,98416.75
2022-11-30T06:39:04.267Z,98413.22
2022-11-30T06:41:31.808Z,98420.44
2022-11-30T06:43:59.500Z,98421.94
2022-11-30T06:46:27.522Z,98427.03
2022-11-30T06:48:55.802Z,98432.28
2022-11-30T06:51:23.370Z,98424.88
2022-11-30T06:53:50.963Z,98434.50
2022-11-30T06:56:18.988Z,98443.22
2022-11-30T06:58:46.803Z,98438.91
2022-11-30T07:01:15.868Z,98441.84
2022-11-30T07:03:44.039Z,98441.84
2022-11-30T07:06:13.341Z,98452.19
2022-11-30T07:08:42.408Z,98458.72
2022-11-30T07:11:11.571Z,98455.44
2022-11-30T07:13:39.552Z,98463.47
2022-11-30T07:16:10.864Z,98461.16
2022-11-30T07:18:39.067Z,98455.41
2022-11-30T07:21:07.461Z,98470.56
2022-11-30T07:23:56.644Z,98462.22
2022-11-30T07:26:25.955Z,98468.38
2022-11-30T07:29:05.392Z,98472.28
2022-11-30T07:31:36.620Z,98464.72
2022-11-30T07:34:07.700Z,98465.91
2022-11-30T07:36:36.798Z,98470.59
2022-11-30T07:39:04.592Z,98465.09
2022-11-30T07:41:32.181Z,98465.59
2022-11-30T07:44:05.452Z,98467.50
2022-11-30T07:46:35.961Z,98471.34
2022-11-30T07:49:04.992Z,98467.38
2022-11-30T07:51:33.027Z,98467.94
2022-11-30T07:54:01.200Z,98466.16
2022-11-30T07:56:29.653Z,98467.16
2022-11-30T07:58:59.882Z,98462.59
2022-11-30T08:01:30.655Z,98458.97
2022-11-30T08:03:59.214Z,98461.72
2022-11-30T08:06:29.772Z,98468.81
2022-11-30T08:09:02.857Z,98461.44
2022-11-30T08:11:33.422Z,98468.81
2022-11-30T08:14:02.691Z,98462.22
2022-11-30T08:16:36.131Z,98464.88
2022-11-30T08:19:03.863Z,98459.44
2022-11-30T08:21:34.370Z,98462.09
2022-11-30T08:24:01.984Z,98469.28
2022-11-30T08:26:32.509Z,98468.13
2022-11-30T08:29:01.393Z,98477.19
2022-11-30T08:31:31.532Z,98475.03
2022-11-30T08:34:06.221Z,98477.81
2022-11-30T08:36:34.864Z,98490.53
2022-11-30T08:39:05.251Z,98488.66
2022-11-30T08:41:35.157Z,98481.94
2022-11-30T08:44:02.797Z,98492.78
2022-11-30T08:49:22.037Z,98497.13
2022-11-30T08:52:21.635Z,98490.69
2022-11-30T08:54:50.071Z,98496.16
2022-11-30T08:57:21.222Z,98506.19
2022-11-30T08:59:48.981Z,98502.41
2022-11-30T09:02:18.240Z,98504.25
2022-11-30T09:04:49.416Z,98508.69
2022-11-30T09:07:17.675Z,98498.66
2022-11-30T09:09:45.793Z,98503.44
2022-11-30T09:12:13.372Z,98499.63
2022-11-30T09:14:41.055Z,98497.16
2022-11-30T09:17:08.681Z,98501.44
2022-11-30T09:19:36.244Z,98510.69
2022-11-30T09:22:03.828Z,98504.72
2022-11-30T09:24:31.451Z,98505.59
2022-11-30T09:26:59.061Z,98510.84
2022-11-30T09:29:26.677Z,98514.31
2022-11-30T09:31:54.284Z,98507.69
2022-11-30T09:34:21.960Z,98505.56
2022-11-30T09:36:49.492Z,98511.00
2022-11-30T09:39:17.167Z,98505.59
2022-11-30T09:42:02.972Z,98508.19
2022-11-30T09:44:52.318Z,98513.16
2022-11-30T09:47:43.130Z,98506.22
2022-11-30T09:50:15.710Z,98507.22
2022-11-30T09:52:48.089Z,98510.19
2022-11-30T09:55:24.685Z,98511.50
2022-11-30T09:57:55.963Z,98495.38
2022-11-30T10:00:25.373Z,98504.09
2022-11-30T10:02:55.872Z,98498.47
2022-11-30T10:05:27.740Z,98489.56
2022-11-30T10:08:29.594Z,98486.91
2022-11-30T10:11:34.864Z,98478.84
2022-11-30T10:14:05.170Z,98490.41
2022-11-30T10:16:50.675Z,98487.66
2022-11-30T10:19:48.463Z,98490.63
2022-11-30T10:22:56.092Z,98487.06
2022-11-30T10:25:29.433Z,98488.34
2022-11-30T10:28:46.481Z,98491.91
2022-11-30T10:31:21.296Z,98486.66
2022-11-30T10:33:54.939Z,98487.91
2022-11-30T10:36:25.208Z,98490.56
2022-11-30T10:38:58.813Z,98473.56
2022-11-30T10:41:44.105Z,98478.84
2022-11-30T10:44:32.105Z,98486.44
2022-11-30T10:47:20.305Z,98482.63
2022-11-30T10:49:50.694Z,98483.44
2022-11-30T10:52:29.133Z,98479.50
2022-11-30T10:55:03.614Z,98483.88
2022-11-30T10:57:33.576Z,98488.28
2022-11-30T11:00:05.700Z,98488.97
2022-11-30T11:02:50.322Z,98492.97
2022-11-30T11:05:18.107Z,98494.56
2022-11-30T11:08:05.772Z,98500.09
2022-11-30T11:10:45.318Z,98493.19
2022-11-30T11:13:35.133Z,98495.00
2022-11-30T11:16:05.420Z,98489.09
2022-11-30T11:18:34.591Z,98491.75
2022-11-30T11:21:20.324Z,98490.88
2022-11-30T11:23:54.678Z,98492.72
2022-11-30T11:26:27.991Z,98496.34
2022-11-30T11:28:59.672Z,98491.41
2022-11-30T11:31:38.501Z,98493.88
2022-11-30T11:34:22.922Z,98494.03
2022-11-30T11:37:06.789Z,98495.19
2022-11-30T11:39:34.392Z,98487.94
2022-11-30T11:42:02.022Z,98486.78
2022-11-30T11:44:29.688Z,98494.38
2022-11-30T11:47:07.504Z,98484.81
2022-11-30T11:49:37.233Z,98497.00
2022-11-30T11:52:09.181Z,98491.09
2022-11-30T11:54:36.871Z,98486.94
2022-11-30T11:57:10.241Z,98482.50
2022-11-30T11:59:51.662Z,98483.34
2022-11-30T12:02:32.541Z,98481.00
2022-11-30T12:05:12.383Z,98479.50
2022-11-30T12:08:01.764Z,98479.75
2022-11-30T12:10:53.438Z,98474.59
2022-11-30T12:13:32.734Z,98480.03
2022-11-30T12:16:14.610Z,98483.63
2022-11-30T12:19:15.131Z,98474.81
2022-11-30T12:22:10.251Z,98478.97
2022-11-30T12:24:37.822Z,98474.03
2022-11-30T12:27:08.195Z,98480.28
2022-11-30T12:29:53.792Z,98472.19
2022-11-30T12:33:03.610Z,98482.66
2022-11-30T12:35:54.351Z,98480.53
2022-11-30T12:38:36.950Z,98484.69
2022-11-30T12:41:26.277Z,98481.91
2022-11-30T12:44:12.648Z,98481.91
2022-11-30T12:47:17.138Z,98481.69
2022-11-30T12:50:05.742Z,98480.41
2022-11-30T12:53:02.414Z,98475.88
2022-11-30T12:55:48.282Z,98480.63
2022-11-30T12:58:46.402Z,98479.00
2022-11-30T13:01:32.377Z,98482.47
2022-11-30T13:04:25.710Z,98480.16
2022-11-30T13:07:30.350Z,98488.44
2022-11-30T13:10:04.247Z,98484.00
2022-11-30T13:12:37.073Z,98478.72
2022-11-30T13:15:15.719Z,98479.53
2022-11-30T13:17:46.066Z,98484.00
2022-11-30T13:20:50.222Z,98485.16
2022-11-30T13:23:39.532Z,98488.78
2022-11-30T13:26:35.811Z,98490.09
2022-11-30T13:29:25.640Z,98491.09
2022-11-30T13:32:33.921Z,98483.84
2022-11-30T13:35:28.493Z,98486.31
2022-11-30T13:41:08.717Z,98491.06
2022-11-30T13:43:45.745Z,98482.13
2022-11-30T13:46:15.142Z,98492.31
2022-11-30T13:48:45.014Z,98483.13
2022-11-30T13:51:13.775Z,98484.13
2022-11-30T13:53:41.549Z,98482.97
2022-11-30T13:56:18.171Z,98488.38
2022-11-30T13:59:23.476Z,98493.63
2022-11-30T14:01:51.991Z,98498.09
2022-11-30T14:04:19.414Z,98496.59
2022-11-30T14:06:51.055Z,98499.09
2022-11-30T14:09:37.435Z,98506.84
2022-11-30T14:12:47.603Z,98503.06
2022-11-30T14:15:31.963Z,98506.88
2022-11-30T14:18:03.192Z,98501.94
2022-11-30T14:20:38.148Z,98508.03
2022-11-30T14:23:08.913Z,98511.66
2022-11-30T14:25:39.822Z,98507.03
2022-11-30T14:28:11.873Z,98510.84
2022-11-30T14:30:40.332Z,98504.91
2022-11-30T14:33:19.580Z,98513.31
2022-11-30T14:35:53.055Z,98514.47
2022-11-30T14:38:30.930Z,98508.03
2022-11-30T14:40:59.288Z,98519.06
2022-11-30T14:43:26.845Z,98520.06
2022-11-30T14:46:05.618Z,98519.41
2022-11-30T14:48:35.964Z,98516.44
2022-11-30T14:51:04.116Z,98511.81
2022-11-30T14:53:55.299Z,98512.63
2022-11-30T14:56:36.961Z,98513.31
2022-11-30T14:59:28.883Z,98512.50
2022-11-30T15:02:02.543Z,98511.84
2022-11-30T15:04:30.886Z,98512.81
2022-11-30T15:06:59.413Z,98512.50
2022-11-30T15:09:32.541Z,98520.19
2022-11-30T15:12:00.202Z,98529.91
2022-11-30T15:14:27.932Z,98524.66
2022-11-30T15:16:59.826Z,98525.31
2022-11-30T15:19:29.201Z,98520.53
2022-11-30T15:21:57.943Z,98524.00
2022-11-30T15:24:27.222Z,98524.16
2022-11-30T15:26:59.227Z,98523.97
2022-11-30T15:29:37.732Z,98528.28
2022-11-30T15:32:15.674Z,98534.50
2022-11-30T15:35:17.702Z,98536.31
2022-11-30T15:37:45.432Z,98537.13
2022-11-30T15:40:43.502Z,98535.16
2022-11-30T15:43:37.724Z,98541.75
2022-11-30T15:46:06.209Z,98539.97
2022-11-30T15:48:39.639Z,98534.69
2022-11-30T15:51:07.421Z,98535.53
2022-11-30T15:53:51.972Z,98538.31
2022-11-30T15:56:28.504Z,98536.00
2022-11-30T15:59:14.203Z,98535.00
2022-11-30T16:02:02.757Z,98546.22
2022-11-30T16:04:58.062Z,98543.56
2022-11-30T16:07:30.273Z,98541.25
2022-11-30T16:10:25.830Z,98539.59
2022-11-30T16:12:55.425Z,98543.53
2022-11-30T16:15:28.623Z,98542.22
2022-11-30T16:18:02.542Z,98536.81
2022-11-30T16:20:30.023Z,98537.81
2022-11-30T16:23:02.480Z,98538.97
2022-11-30T16:25:32.999Z,98529.59
2022-11-30T16:28:02.792Z,98536.50
2022-11-30T16:30:30.868Z,98533.56
2022-11-30T16:32:58.333Z,98540.00
2022-11-30T16:35:34.764Z,98543.59
2022-11-30T16:38:02.571Z,98534.88
2022-11-30T16:40:34.034Z,98528.13
2022-11-30T16:43:05.975Z,98528.63
2022-11-30T16:45:36.897Z,98534.88
2022-11-30T16:48:05.374Z,98533.88
2022-11-30T16:50:34.889Z,98524.34
2022-11-30T16:53:02.601Z,98535.06
2022-11-30T16:55:35.223Z,98537.84
2022-11-30T16:58:02.692Z,98548.72
2022-11-30T17:00:30.556Z,98545.72
2022-11-30T17:03:09.873Z,98549.84
2022-11-30T17:05:37.432Z,98551.81
2022-11-30T17:08:05.075Z,98553.16
2022-11-30T17:10:32.613Z,98550.22
2022-11-30T17:13:00.138Z,98551.50
2022-11-30T17:15:27.632Z,98560.41
2022-11-30T17:17:59.377Z,98558.28
2022-11-30T17:20:27.729Z,98568.63
2022-11-30T17:22:55.213Z,98566.16
2022-11-30T17:25:24.052Z,98570.47
2022-11-30T17:27:51.792Z,98570.97
2022-11-30T17:30:21.591Z,98566.34
2022-11-30T17:32:50.205Z,98562.56
2022-11-30T17:35:18.911Z,98571.09
2022-11-30T17:37:46.623Z,98581.81
2022-11-30T17:40:16.242Z,98570.94
2022-11-30T17:42:43.971Z,98577.03
2022-11-30T17:45:11.644Z,98570.44
2022-11-30T17:47:39.202Z,98578.84
2022-11-30T17:50:07.685Z,98574.41
2022-11-30T17:52:35.902Z,98579.50
2022-11-30T17:55:03.689Z,98583.44
2022-11-30T17:57:31.172Z,98576.38
2022-11-30T17:59:58.668Z,98585.75
2022-11-30T18:02:26.278Z,98576.88
2022-11-30T18:04:54.674Z,98574.41
2022-11-30T18:07:22.324Z,98581.31
2022-11-30T18:09:49.830Z,98579.47
2022-11-30T18:12:17.298Z,98586.88
2022-11-30T18:14:45.682Z,98591.34
2022-11-30T18:17:13.312Z,98589.38
2022-11-30T18:19:41.139Z,98595.94
2022-11-30T18:22:08.730Z,98593.63
2022-11-30T18:24:36.202Z,98605.47
2022-11-30T18:27:03.640Z,98602.97
2022-11-30T18:29:31.151Z,98604.59
2022-11-30T18:31:58.642Z,98602.97
2022-11-30T18:34:26.242Z,98610.06
2022-11-30T18:36:53.776Z,98608.13
2022-11-30T18:39:21.393Z,98616.88
2022-11-30T18:41:49.422Z,98617.03
2022-11-30T18:44:16.960Z,98623.59
2022-11-30T18:46:44.525Z,98616.84
2022-11-30T18:49:12.018Z,98621.13
2022-11-30T18:51:39.502Z,98619.63
2022-11-30T18:54:08.418Z,98620.31
2022-11-30T18:56:38.836Z,98616.84
2022-11-30T18:59:10.241Z,98622.25
2022-11-30T19:01:37.979Z,98626.06
2022-11-30T19:04:08.299Z,98629.53
2022-11-30T19:06:37.910Z,98619.47
2022-11-30T19:09:10.503Z,98627.97
2022-11-30T19:11:39.322Z,98629.53
2022-11-30T19:14:07.674Z,98630.28
2022-11-30T19:16:35.997Z,98622.81
2022-11-30T19:19:10.402Z,98626.00
2022-11-30T19:21:38.261Z,98627.56
2022-11-30T19:24:06.130Z,98630.66
2022-11-30T19:26:33.645Z,98632.09
2022-11-30T19:29:01.094Z,98629.72
2022-11-30T19:31:28.679Z,98630.41
2022-11-30T19:33:56.653Z,98631.16
2022-11-30T19:36:27.036Z,98631.41
2022-11-30T19:38:54.951Z,98634.63
2022-11-30T19:41:22.462Z,98635.22
2022-11-30T19:44:03.941Z,98636.47
2022-11-30T19:46:33.205Z,98636.94
2022-11-30T19:49:02.039Z,98638.47
2022-11-30T19:51:31.319Z,98641.69
2022-11-30T19:54:01.730Z,98636.19
2022-11-30T19:56:32.020Z,98638.28
2022-11-30T19:59:04.582Z,98638.56
2022-11-30T20:01:34.159Z,98640.66
2022-11-30T20:04:01.872Z,98649.00
2022-11-30T20:06:32.721Z,98648.31
2022-11-30T20:09:00.622Z,98646.28
2022-11-30T20:11:28.622Z,98646.97
2022-11-30T20:13:56.160Z,98652.06
2022-11-30T20:16:23.707Z,98652.50
2022-11-30T20:18:57.332Z,98653.75
2022-11-30T20:21:27.912Z,98655.16
2022-11-30T20:24:00.143Z,98651.06
2022-11-30T20:26:35.198Z,98661.50
2022-11-30T20:29:05.429Z,98652.69
2022-11-30T20:31:35.934Z,98661.13
2022-11-30T20:34:03.784Z,98662.13
2022-11-30T20:36:31.634Z,98665.72
2022-11-30T20:38:59.802Z,98671.25
2022-11-30T20:41:27.440Z,98665.06
2022-11-30T20:43:55.842Z,98674.19
2022-11-30T20:46:24.728Z,98667.16
2022-11-30T20:48:52.282Z,98673.50
2022-11-30T20:51:33.255Z,98678.88
2022-11-30T20:54:04.067Z,98671.44
2022-11-30T20:56:33.118Z,98666.06
2022-11-30T20:59:02.663Z,98681.53
2022-11-30T21:01:30.717Z,98683.59
2022-11-30T21:04:00.841Z,98686.50
2022-11-30T21:06:31.677Z,98690.63
2022-11-30T21:08:59.848Z,98689.94
2022-11-30T21:11:29.287Z,98691.28
2022-11-30T21:13:58.224Z,98691.72
2022-11-30T21:16:28.887Z,98691.72
2022-11-30T21:19:00.347Z,98687.47
2022-11-30T21:21:31.008Z,98690.63
2022-11-30T21:24:00.753Z,98696.69
2022-11-30T21:26:34.113Z,98701.50
2022-11-30T21:29:07.123Z,98703.56
2022-11-30T21:31:34.989Z,98699.41
2022-11-30T21:34:02.984Z,98703.56
2022-11-30T21:36:30.511Z,98713.91
2022-11-30T21:39:05.557Z,98711.13
2022-11-30T21:41:39.193Z,98722.31
2022-11-30T21:44:09.916Z,98716.53
2022-11-30T21:46:37.699Z,98723.25
2022-11-30T21:49:05.333Z,98717.72
2022-11-30T21:51:33.402Z,98719.50
2022-11-30T21:54:03.338Z,98728.19
2022-11-30T21:56:33.932Z,98721.31
2022-11-30T21:59:01.994Z,98720.91
2022-11-30T22:01:35.423Z,98718.53
2022-11-30T22:04:05.290Z,98723.22
2022-11-30T22:06:35.230Z,98721.56
2022-11-30T22:09:08.086Z,98725.03
2022-11-30T22:11:41.512Z,98726.94
2022-11-30T22:14:15.731Z,98721.44
2022-11-30T22:16:43.717Z,98719.91
2022-11-30T22:19:11.349Z,98721.97
2022-11-30T22:21:39.171Z,98719.88
2022-11-30T22:24:11.381Z,98719.16
2022-11-30T22:26:41.584Z,98721.38
2022-11-30T22:29:13.453Z,98730.75
2022-11-30T22:31:43.321Z,98724.66
2022-11-30T22:34:11.350Z,98731.03
2022-11-30T22:36:40.322Z,98722.47
2022-11-30T22:39:19.421Z,98721.09
2022-11-30T22:41:53.061Z,98716.53
2022-11-30T22:44:23.870Z,98726.88
2022-11-30T22:46:51.433Z,98721.09
2022-11-30T22:49:21.624Z,98727.41
2022-11-30T22:51:50.825Z,98726.59
2022-11-30T22:54:18.732Z,98732.50
2022-11-30T22:56:46.796Z,98724.09
2022-11-30T22:59:15.325Z,98720.75
2022-11-30T23:01:45.584Z,98717.19
2022-11-30T23:04:16.104Z,98720.75
2022-11-30T23:06:44.843Z,98714.31
2022-11-30T23:09:15.343Z,98721.78
2022-11-30T23:11:43.732Z,98716.47
2022-11-30T23:14:12.376Z,98716.19
2022-11-30T23:16:40.448Z,98715.19
2022-11-30T23:19:09.230Z,98715.63
2022-11-30T23:21:41.485Z,98711.72
2022-11-30T23:24:14.771Z,98712.13
2022-11-30T23:26:43.100Z,98705.94
2022-11-30T23:29:12.918Z,98705.94
2022-11-30T23:31:42.001Z,98706.22
2022-11-30T23:34:12.252Z,98707.84
2022-11-30T23:36:39.820Z,98714.72
2022-11-30T23:39:10.932Z,98714.72
2022-11-30T23:41:38.926Z,98705.50
2022-11-30T23:44:07.531Z,98707.84
2022-11-30T23:46:35.646Z,98706.75
2022-11-30T23:49:03.282Z,98704.91
2022-11-30T23:51:31.041Z,98702.72
2022-11-30T23:53:58.488Z,98708.84
2022-11-30T23:56:26.011Z,98703.31
2022-11-30T23:58:53.580Z,98703.47
